createdAt,value
2022-09-12T00:01:28.103Z,1.80
2022-09-12T00:03:55.973Z,1.97
2022-09-12T00:06:25.164Z,1.80
2022-09-12T00:08:53.780Z,1.70
2022-09-12T00:11:20.348Z,2.40
2022-09-12T00:13:47.002Z,1.87
2022-09-12T00:16:22.170Z,1.90
2022-09-12T00:18:48.873Z,2.13
2022-09-12T00:21:16.176Z,2.10
2022-09-12T00:23:42.761Z,2.20
2022-09-12T00:26:09.480Z,1.87
2022-09-12T00:28:36.776Z,1.80
2022-09-12T00:31:07.910Z,2.00
2022-09-12T00:33:34.627Z,1.93
2022-09-12T00:36:04.667Z,2.10
2022-09-12T00:38:31.656Z,2.27
2022-09-12T00:40:58.226Z,2.00
2022-09-12T00:43:30.621Z,1.77
2022-09-12T00:45:57.886Z,2.23
2022-09-12T00:48:31.947Z,1.80
2022-09-12T00:50:58.601Z,2.00
2022-09-12T00:53:25.188Z,1.87
2022-09-12T00:55:51.907Z,2.00
2022-09-12T00:58:29.740Z,2.07
2022-09-12T01:00:57.358Z,2.00
2022-09-12T01:03:24.108Z,2.00
2022-09-12T01:06:01.286Z,2.00
2022-09-12T01:08:28.114Z,2.30
2022-09-12T01:10:54.722Z,1.97
2022-09-12T01:13:21.299Z,1.90
2022-09-12T01:15:47.910Z,1.80
2022-09-12T01:18:19.002Z,1.83
2022-09-12T01:20:51.325Z,1.87
2022-09-12T01:23:39.659Z,2.00
2022-09-12T01:26:24.874Z,2.00
2022-09-12T01:29:19.975Z,1.83
2022-09-12T01:31:47.540Z,2.03
2022-09-12T01:34:21.389Z,1.90
2022-09-12T01:37:06.131Z,1.77
2022-09-12T01:39:39.055Z,1.77
2022-09-12T01:42:38.520Z,1.90
2022-09-12T01:45:14.359Z,1.80
2022-09-12T01:47:42.344Z,1.97
2022-09-12T01:50:20.028Z,2.10
2022-09-12T01:52:49.583Z,1.87
2022-09-12T01:55:30.156Z,1.93
2022-09-12T01:58:10.372Z,1.93
2022-09-12T02:00:40.029Z,1.87
2022-09-12T02:03:12.371Z,2.00
2022-09-12T02:05:54.865Z,1.97
2022-09-12T02:08:26.051Z,1.80
2022-09-12T02:10:56.084Z,2.00
2022-09-12T02:13:34.725Z,2.03
2022-09-12T02:16:10.701Z,2.13
2022-09-12T02:18:39.319Z,2.13
2022-09-12T02:21:06.244Z,2.13
2022-09-12T02:23:32.814Z,1.80
2022-09-12T02:26:03.720Z,1.80
2022-09-12T02:28:32.978Z,1.73
2022-09-12T02:31:14.766Z,1.53
2022-09-12T02:34:04.585Z,1.77
2022-09-12T02:36:34.409Z,2.30
2022-09-12T02:39:00.989Z,1.70
2022-09-12T02:41:27.575Z,1.70
2022-09-12T02:43:54.240Z,1.73
2022-09-12T02:46:23.532Z,1.67
2022-09-12T02:48:50.118Z,1.70
2022-09-12T02:51:20.335Z,1.70
2022-09-12T02:53:49.725Z,1.97
2022-09-12T02:56:20.485Z,2.23
2022-09-12T02:58:47.205Z,1.90
2022-09-12T03:01:41.790Z,1.63
2022-09-12T03:04:31.449Z,1.73
2022-09-12T03:07:11.309Z,1.70
2022-09-12T03:09:59.788Z,1.87
2022-09-12T03:12:40.775Z,1.90
2022-09-12T03:15:17.793Z,1.80
2022-09-12T03:18:01.408Z,1.47
2022-09-12T03:20:44.361Z,1.70
2022-09-12T03:23:24.956Z,1.83
2022-09-12T03:26:31.832Z,1.70
2022-09-12T03:28:59.183Z,1.57
2022-09-12T03:31:25.847Z,2.13
2022-09-12T03:33:52.452Z,1.90
2022-09-12T03:36:22.141Z,2.13
2022-09-12T03:38:48.868Z,2.40
2022-09-12T03:41:15.459Z,1.60
2022-09-12T03:43:42.069Z,2.00
2022-09-12T03:46:08.750Z,1.50
2022-09-12T03:48:35.457Z,1.80
2022-09-12T03:51:06.130Z,1.70
2022-09-12T03:53:32.719Z,1.80
2022-09-12T03:55:59.391Z,1.80
2022-09-12T03:58:29.125Z,1.87
2022-09-12T04:00:55.741Z,1.97
2022-09-12T04:03:22.680Z,1.80
2022-09-12T04:05:49.260Z,1.93
2022-09-12T04:08:15.840Z,2.00
2022-09-12T04:10:42.438Z,2.13
2022-09-12T04:13:09.003Z,1.63
2022-09-12T04:15:35.609Z,1.73
2022-09-12T04:18:05.799Z,1.87
2022-09-12T04:20:32.772Z,1.80
2022-09-12T04:22:59.353Z,1.80
2022-09-12T04:25:25.952Z,1.80
2022-09-12T04:27:52.525Z,1.77
2022-09-12T04:30:19.111Z,1.73
2022-09-12T04:32:45.711Z,1.90
2022-09-12T04:35:12.823Z,1.60
2022-09-12T04:37:39.393Z,1.77
2022-09-12T04:40:06.379Z,1.90
2022-09-12T04:42:32.980Z,1.70
2022-09-12T04:44:59.608Z,2.00
2022-09-12T04:47:26.183Z,1.70
2022-09-12T04:49:52.760Z,1.70
2022-09-12T04:52:19.330Z,2.00
2022-09-12T04:54:45.988Z,1.60
2022-09-12T04:57:13.305Z,2.10
2022-09-12T04:59:39.981Z,2.27
2022-09-12T05:02:06.629Z,1.57
2022-09-12T05:04:33.263Z,1.77
2022-09-12T05:07:00.018Z,1.60
2022-09-12T05:09:26.662Z,1.77
2022-09-12T05:12:04.917Z,2.20
2022-09-12T05:14:32.929Z,2.10
2022-09-12T05:17:01.820Z,1.63
2022-09-12T05:19:30.033Z,1.83
2022-09-12T05:21:56.638Z,2.07
2022-09-12T05:24:23.309Z,2.20
2022-09-12T05:26:49.952Z,1.90
2022-09-12T05:29:16.539Z,1.97
2022-09-12T05:31:43.258Z,2.27
2022-09-12T05:34:10.093Z,1.93
2022-09-12T05:36:37.124Z,1.93
2022-09-12T05:39:04.516Z,2.13
2022-09-12T05:41:32.847Z,2.07
2022-09-12T05:44:01.076Z,2.17
2022-09-12T05:46:29.240Z,2.13
2022-09-12T05:48:56.841Z,2.03
2022-09-12T05:51:28.036Z,2.00
2022-09-12T05:53:59.006Z,2.13
2022-09-12T05:56:29.700Z,2.10
2022-09-12T05:59:03.567Z,1.90
2022-09-12T06:01:31.302Z,1.80
2022-09-12T06:04:00.693Z,1.90
2022-09-12T06:06:27.854Z,2.03
2022-09-12T06:09:00.443Z,1.80
2022-09-12T06:11:28.693Z,2.40
2022-09-12T06:13:58.546Z,1.80
2022-09-12T06:16:29.997Z,2.07
2022-09-12T06:19:04.498Z,1.97
2022-09-12T06:21:31.247Z,2.00
2022-09-12T06:24:00.723Z,1.93
2022-09-12T06:26:27.512Z,2.20
2022-09-12T06:28:55.031Z,2.00
2022-09-12T06:31:25.178Z,1.90
2022-09-12T06:33:52.654Z,2.40
2022-09-12T06:36:26.908Z,1.93
2022-09-12T06:38:57.257Z,2.03
2022-09-12T06:41:24.209Z,2.00
2022-09-12T06:43:50.900Z,1.97
2022-09-12T06:46:17.508Z,1.90
2022-09-12T06:48:44.192Z,1.83
2022-09-12T06:51:13.261Z,1.90
2022-09-12T06:53:40.024Z,2.43
2022-09-12T06:56:09.045Z,2.70
2022-09-12T06:58:35.921Z,2.77
2022-09-12T07:01:03.562Z,2.87
2022-09-12T07:03:30.323Z,2.50
2022-09-12T07:05:56.963Z,2.47
2022-09-12T07:08:23.547Z,2.23
2022-09-12T07:10:50.128Z,2.20
2022-09-12T07:13:16.716Z,2.20
2022-09-12T07:15:43.324Z,1.83
2022-09-12T07:18:10.473Z,2.33
2022-09-12T07:20:39.119Z,1.93
2022-09-12T07:23:05.758Z,1.90
2022-09-12T07:25:32.350Z,2.53
2022-09-12T07:27:59.179Z,2.20
2022-09-12T07:30:25.905Z,1.90
2022-09-12T07:32:55.333Z,2.03
2022-09-12T07:35:21.927Z,1.90
2022-09-12T07:37:48.632Z,2.23
2022-09-12T07:40:15.329Z,1.90
2022-09-12T07:42:41.933Z,2.03
2022-09-12T07:45:09.238Z,2.70
2022-09-12T07:47:35.813Z,2.47
2022-09-12T07:50:02.403Z,2.40
2022-09-12T07:52:29.414Z,1.80
2022-09-12T07:54:55.996Z,2.00
2022-09-12T07:57:22.568Z,1.70
2022-09-12T07:59:52.985Z,1.70
2022-09-12T08:02:20.257Z,1.87
2022-09-12T08:04:47.981Z,1.77
2022-09-12T08:07:14.612Z,2.10
2022-09-12T08:09:41.197Z,1.90
2022-09-12T08:12:07.916Z,1.97
2022-09-12T08:14:34.624Z,1.60
2022-09-12T08:17:01.317Z,1.70
2022-09-12T08:19:27.928Z,1.73
2022-09-12T08:21:54.554Z,1.57
2022-09-12T08:24:21.143Z,1.90
2022-09-12T08:26:47.717Z,1.60
2022-09-12T08:29:14.427Z,1.70
2022-09-12T08:31:42.405Z,2.20
2022-09-12T08:34:09.014Z,1.67
2022-09-12T08:36:35.695Z,2.17
2022-09-12T08:39:04.603Z,1.97
2022-09-12T08:41:36.264Z,1.90
2022-09-12T08:44:17.849Z,1.80
2022-09-12T08:46:51.660Z,1.70
2022-09-12T08:49:29.596Z,1.70
2022-09-12T08:51:56.336Z,1.53
2022-09-12T08:54:27.927Z,1.30
2022-09-12T08:56:58.127Z,1.40
2022-09-12T08:59:25.549Z,1.50
2022-09-12T09:01:53.783Z,1.50
2022-09-12T09:04:37.634Z,1.50
2022-09-12T09:07:42.283Z,1.50
2022-09-12T09:10:13.948Z,1.30
2022-09-12T09:13:13.117Z,1.40
2022-09-12T09:15:41.951Z,1.40
2022-09-12T09:18:12.560Z,1.30
2022-09-12T09:20:42.428Z,5.00
2022-09-12T09:23:23.062Z,5.50
2022-09-12T09:26:04.952Z,5.33
2022-09-12T09:29:18.196Z,6.37
2022-09-12T09:31:49.011Z,5.37
2022-09-12T09:34:20.864Z,4.57
2022-09-12T09:36:57.640Z,4.50
2022-09-12T09:39:30.005Z,4.27
2022-09-12T09:42:30.635Z,2.60
2022-09-12T09:44:58.942Z,2.50
2022-09-12T09:47:25.579Z,2.07
2022-09-12T09:49:52.175Z,2.10
2022-09-12T09:52:24.337Z,7.53
2022-09-12T09:54:59.377Z,8.00
2022-09-12T09:57:35.156Z,5.77
2022-09-12T10:00:27.551Z,7.53
2022-09-12T10:03:14.447Z,9.80
2022-09-12T10:06:06.939Z,4.77
2022-09-12T10:08:35.234Z,7.07
2022-09-12T10:11:20.305Z,5.60
2022-09-12T10:13:57.483Z,4.20
2022-09-12T10:16:24.954Z,8.70
2022-09-12T10:18:52.650Z,5.70
2022-09-12T10:21:32.064Z,4.43
2022-09-12T10:24:04.592Z,6.13
2022-09-12T10:26:33.659Z,4.67
2022-09-12T10:29:06.503Z,2.80
2022-09-12T10:31:47.419Z,3.10
2022-09-12T10:34:25.289Z,2.30
2022-09-12T10:36:53.813Z,2.07
2022-09-12T10:39:20.391Z,2.37
2022-09-12T10:41:46.965Z,2.10
2022-09-12T10:44:26.155Z,1.93
2022-09-12T10:46:53.043Z,1.80
2022-09-12T10:49:26.982Z,2.00
2022-09-12T10:51:54.279Z,1.60
2022-09-12T10:54:25.150Z,1.40
2022-09-12T10:57:03.331Z,1.57
2022-09-12T10:59:51.687Z,1.40
2022-09-12T11:02:30.985Z,1.70
2022-09-12T11:05:29.409Z,1.70
2022-09-12T11:08:02.418Z,2.00
2022-09-12T11:10:41.449Z,1.40
2022-09-12T11:13:28.944Z,1.43
2022-09-12T11:16:14.037Z,1.90
2022-09-12T11:19:07.596Z,1.77
2022-09-12T11:21:38.245Z,1.50
2022-09-12T11:24:07.832Z,1.40
2022-09-12T11:26:40.003Z,1.70
2022-09-12T11:29:18.079Z,1.10
2022-09-12T11:32:11.193Z,1.40
2022-09-12T11:35:17.560Z,1.70
2022-09-12T11:38:20.949Z,1.37
2022-09-12T11:40:55.787Z,1.10
2022-09-12T11:43:38.667Z,1.33
2022-09-12T11:46:23.956Z,1.20
2022-09-12T11:49:01.354Z,1.13
2022-09-12T11:51:48.166Z,1.00
2022-09-12T11:54:22.768Z,1.27
2022-09-12T11:56:51.634Z,1.27
2022-09-12T11:59:26.783Z,1.43
2022-09-12T12:01:56.676Z,1.13
2022-09-12T12:04:25.900Z,1.00
2022-09-12T12:07:04.759Z,1.03
2022-09-12T12:09:31.505Z,1.40
2022-09-12T12:11:58.349Z,1.20
2022-09-12T12:14:45.361Z,1.37
2022-09-12T12:17:20.262Z,1.20
2022-09-12T12:19:47.565Z,1.60
2022-09-12T12:22:19.464Z,1.30
2022-09-12T12:25:08.697Z,1.30
2022-09-12T12:27:44.726Z,1.10
2022-09-12T12:30:29.642Z,1.37
2022-09-12T12:33:12.843Z,1.23
2022-09-12T12:35:46.165Z,1.23
2022-09-12T12:38:30.399Z,1.40
2022-09-12T12:41:44.411Z,1.20
2022-09-12T12:44:45.219Z,1.63
2022-09-12T12:47:20.129Z,1.60
2022-09-12T12:49:57.597Z,1.60
2022-09-12T12:52:24.345Z,1.57
2022-09-12T12:54:58.537Z,1.37
2022-09-12T12:57:39.150Z,1.57
2022-09-12T13:00:09.220Z,1.50
2022-09-12T13:02:38.524Z,1.33
2022-09-12T13:05:07.900Z,1.47
2022-09-12T13:07:38.617Z,1.77
2022-09-12T13:10:06.841Z,1.40
2022-09-12T13:12:43.161Z,1.60
2022-09-12T13:15:30.060Z,1.50
2022-09-12T13:17:59.166Z,1.27
2022-09-12T13:20:29.418Z,1.47
2022-09-12T13:22:56.723Z,1.30
2022-09-12T13:25:29.295Z,1.70
2022-09-12T13:28:04.914Z,1.20
2022-09-12T13:30:36.101Z,1.47
2022-09-12T13:33:08.916Z,1.30
2022-09-12T13:35:50.742Z,1.10
2022-09-12T13:38:51.536Z,1.50
2022-09-12T13:41:21.219Z,1.40
2022-09-12T13:43:47.841Z,1.30
2022-09-12T13:46:17.573Z,1.37
2022-09-12T13:48:44.369Z,1.30
2022-09-12T13:51:28.890Z,1.47
2022-09-12T13:53:57.675Z,1.23
2022-09-12T13:56:24.360Z,1.17
2022-09-12T13:58:56.714Z,1.30
2022-09-12T14:01:44.462Z,1.20
2022-09-12T14:04:40.714Z,1.50
2022-09-12T14:07:15.502Z,1.50
2022-09-12T14:09:47.033Z,1.40
2022-09-12T14:12:20.552Z,1.70
2022-09-12T14:14:49.893Z,1.60
2022-09-12T14:17:33.153Z,1.40
2022-09-12T14:20:08.812Z,1.37
2022-09-12T14:22:36.296Z,1.53
2022-09-12T14:25:02.892Z,1.30
2022-09-12T14:27:37.250Z,1.37
2022-09-12T14:30:09.061Z,1.43
2022-09-12T14:32:35.854Z,1.40
2022-09-12T14:35:06.476Z,1.37
2022-09-12T14:37:33.053Z,1.03
2022-09-12T14:39:59.821Z,1.50
2022-09-12T14:42:28.097Z,1.47
2022-09-12T14:45:01.014Z,1.37
2022-09-12T14:47:28.197Z,1.27
2022-09-12T14:49:54.887Z,1.30
2022-09-12T14:52:29.421Z,1.30
2022-09-12T14:55:02.849Z,1.33
2022-09-12T14:57:39.217Z,1.40
2022-09-12T15:00:12.101Z,1.63
2022-09-12T15:02:42.027Z,1.50
2022-09-12T15:05:08.644Z,1.47
2022-09-12T15:07:50.376Z,1.60
2022-09-12T15:10:22.801Z,1.90
2022-09-12T15:12:49.650Z,1.67
2022-09-12T15:15:18.257Z,1.70
2022-09-12T15:17:44.954Z,1.80
2022-09-12T15:20:12.447Z,1.83
2022-09-12T15:22:39.097Z,1.63
2022-09-12T15:25:06.242Z,1.63
2022-09-12T15:27:32.812Z,1.70
2022-09-12T15:29:59.391Z,1.47
2022-09-12T15:32:26.900Z,1.80
2022-09-12T15:34:53.739Z,1.70
2022-09-12T15:37:21.731Z,1.60
2022-09-12T15:39:48.524Z,1.77
2022-09-12T15:42:15.278Z,2.80
2022-09-12T15:44:41.864Z,2.00
2022-09-12T15:47:12.617Z,2.57
2022-09-12T15:49:42.184Z,2.90
2022-09-12T15:52:09.910Z,2.73
2022-09-12T15:54:36.486Z,2.73
2022-09-12T15:57:03.084Z,2.30
2022-09-12T15:59:30.989Z,2.37
2022-09-12T16:01:58.214Z,2.43
2022-09-12T16:04:26.553Z,2.50
2022-09-12T16:06:55.179Z,2.63
2022-09-12T16:09:22.052Z,2.20
2022-09-12T16:11:48.643Z,2.10
2022-09-12T16:14:18.369Z,2.37
2022-09-12T16:16:45.144Z,2.30
2022-09-12T16:19:12.420Z,2.23
2022-09-12T16:21:39.036Z,2.47
2022-09-12T16:24:05.827Z,2.40
2022-09-12T16:26:32.415Z,2.40
2022-09-12T16:28:59.211Z,2.17
2022-09-12T16:31:26.244Z,2.03
2022-09-12T16:33:52.936Z,1.90
2022-09-12T16:36:20.489Z,2.13
2022-09-12T16:38:48.721Z,1.90
2022-09-12T16:41:15.883Z,2.60
2022-09-12T16:43:42.950Z,1.83
2022-09-12T16:46:23.083Z,2.40
2022-09-12T16:48:52.483Z,2.47
2022-09-12T16:51:20.875Z,2.40
2022-09-12T16:53:48.161Z,2.60
2022-09-12T16:56:14.812Z,2.40
2022-09-12T16:58:42.180Z,2.37
2022-09-12T17:01:09.640Z,2.27
2022-09-12T17:03:36.298Z,2.13
2022-09-12T17:06:10.457Z,2.20
2022-09-12T17:08:38.398Z,2.10
2022-09-12T17:11:06.877Z,2.47
2022-09-12T17:14:02.815Z,2.17
2022-09-12T17:16:20.737Z,2.40
2022-09-12T17:18:47.500Z,1.83
2022-09-12T17:21:14.166Z,1.93
2022-09-12T17:23:40.995Z,2.17
2022-09-12T17:26:08.019Z,2.13
2022-09-12T17:28:34.730Z,2.30
2022-09-12T17:31:03.126Z,2.23
2022-09-12T17:33:29.828Z,2.27
2022-09-12T17:36:04.192Z,2.10
2022-09-12T17:38:34.693Z,1.90
2022-09-12T17:41:23.488Z,1.93
2022-09-12T17:43:57.146Z,1.80
2022-09-12T17:46:25.443Z,1.80
2022-09-12T17:48:55.360Z,2.20
2022-09-12T17:51:22.820Z,2.60
2022-09-12T17:53:49.411Z,1.90
2022-09-12T17:56:15.988Z,1.80
2022-09-12T17:58:42.580Z,1.77
2022-09-12T18:01:31.913Z,2.00
2022-09-12T18:04:00.540Z,2.20
2022-09-12T18:06:28.085Z,1.90
2022-09-12T18:08:54.852Z,2.30
2022-09-12T18:11:21.471Z,2.30
2022-09-12T18:13:48.219Z,2.20
2022-09-12T18:16:15.937Z,2.40
2022-09-12T18:18:42.564Z,1.90
2022-09-12T18:21:10.289Z,2.37
2022-09-12T18:23:36.902Z,1.83
2022-09-12T18:26:07.709Z,2.33
2022-09-12T18:28:35.062Z,2.00
2022-09-12T18:31:01.705Z,2.00
2022-09-12T18:33:28.364Z,2.00
2022-09-12T18:35:54.943Z,2.20
2022-09-12T18:38:21.604Z,2.50
2022-09-12T18:40:49.085Z,1.93
2022-09-12T18:43:15.672Z,2.17
2022-09-12T18:45:42.257Z,2.03
2022-09-12T18:48:09.409Z,1.90
2022-09-12T18:50:36.015Z,2.00
2022-09-12T18:53:02.684Z,2.43
2022-09-12T18:55:30.522Z,1.80
2022-09-12T18:57:57.219Z,2.20
2022-09-12T19:00:23.803Z,2.00
2022-09-12T19:02:50.385Z,2.63
2022-09-12T19:05:16.995Z,2.17
2022-09-12T19:07:43.585Z,2.30
2022-09-12T19:10:10.166Z,2.20
2022-09-12T19:12:36.765Z,1.90
2022-09-12T19:15:03.872Z,2.10
2022-09-12T19:17:30.485Z,2.00
2022-09-12T19:19:57.061Z,2.03
2022-09-12T19:22:23.643Z,2.00
2022-09-12T19:24:50.217Z,1.77
2022-09-12T19:27:16.806Z,2.33
2022-09-12T19:29:43.412Z,2.17
2022-09-12T19:32:10.066Z,2.17
2022-09-12T19:34:36.643Z,2.10
2022-09-12T19:37:04.012Z,2.80
2022-09-12T19:39:31.249Z,2.33
2022-09-12T19:41:57.841Z,2.17
2022-09-12T19:44:26.977Z,1.87
2022-09-12T19:46:53.608Z,2.30
2022-09-12T19:49:20.177Z,2.30
2022-09-12T19:51:46.758Z,2.00
2022-09-12T19:54:14.190Z,1.90
2022-09-12T19:56:40.820Z,2.07
2022-09-12T19:59:07.447Z,2.20
2022-09-12T20:01:36.700Z,1.97
2022-09-12T20:04:03.653Z,2.03
2022-09-12T20:06:30.238Z,1.77
2022-09-12T20:08:56.827Z,1.60
2022-09-12T20:11:23.738Z,2.17
2022-09-12T20:13:50.511Z,1.73
2022-09-12T20:16:25.576Z,1.97
2022-09-12T20:19:11.882Z,1.70
2022-09-12T20:21:38.466Z,1.87
2022-09-12T20:24:07.093Z,2.13
2022-09-12T20:26:34.017Z,2.27
2022-09-12T20:29:00.705Z,2.10
2022-09-12T20:31:27.484Z,2.10
2022-09-12T20:33:54.459Z,2.13
2022-09-12T20:36:21.494Z,2.07
2022-09-12T20:38:58.450Z,2.30
2022-09-12T20:41:25.209Z,2.43
2022-09-12T20:43:52.711Z,2.03
2022-09-12T20:46:21.892Z,2.30
2022-09-12T20:48:49.249Z,2.03
2022-09-12T20:51:16.731Z,1.90
2022-09-12T20:53:44.345Z,2.13
2022-09-12T20:56:11.017Z,2.20
2022-09-12T20:58:43.071Z,1.70
2022-09-12T21:01:11.353Z,2.30
2022-09-12T21:03:38.872Z,2.53
2022-09-12T21:06:06.320Z,2.30
2022-09-12T21:08:33.480Z,2.53
2022-09-12T21:11:00.077Z,2.00
2022-09-12T21:13:26.669Z,2.07
2022-09-12T21:16:06.634Z,2.00
2022-09-12T21:18:33.547Z,2.20
2022-09-12T21:21:00.124Z,2.37
2022-09-12T21:23:27.043Z,2.17
2022-09-12T21:25:53.668Z,1.93
2022-09-12T21:28:20.646Z,1.77
2022-09-12T21:30:50.883Z,1.77
2022-09-12T21:33:18.252Z,2.10
2022-09-12T21:35:45.192Z,1.90
2022-09-12T21:38:11.791Z,1.70
2022-09-12T21:40:38.377Z,2.23
2022-09-12T21:43:08.119Z,2.00
2022-09-12T21:45:37.104Z,2.13
2022-09-12T21:48:03.779Z,1.93
2022-09-12T21:50:30.356Z,2.00
2022-09-12T21:52:56.929Z,1.93
2022-09-12T21:55:26.996Z,2.10
2022-09-12T21:57:54.679Z,2.00
2022-09-12T22:00:21.649Z,1.87
2022-09-12T22:02:48.753Z,2.10
2022-09-12T22:05:15.457Z,1.83
2022-09-12T22:07:42.068Z,1.87
2022-09-12T22:10:09.000Z,2.13
2022-09-12T22:12:35.607Z,1.97
2022-09-12T22:15:17.481Z,1.87
2022-09-12T22:17:48.771Z,2.10
2022-09-12T22:20:15.346Z,2.10
2022-09-12T22:23:00.489Z,2.03
2022-09-12T22:25:27.105Z,2.13
2022-09-12T22:27:54.131Z,1.80
2022-09-12T22:30:21.371Z,1.77
2022-09-12T22:32:49.628Z,1.90
2022-09-12T22:35:19.654Z,2.10
2022-09-12T22:37:47.010Z,2.30
2022-09-12T22:40:13.670Z,1.70
2022-09-12T22:42:40.393Z,1.80
2022-09-12T22:45:07.674Z,2.10
2022-09-12T22:47:34.286Z,1.97
2022-09-12T22:50:00.877Z,2.63
2022-09-12T22:52:27.464Z,1.57
2022-09-12T22:54:54.043Z,1.87
2022-09-12T22:57:20.617Z,1.83
2022-09-12T22:59:47.201Z,2.27
2022-09-12T23:02:13.792Z,1.53
2022-09-12T23:04:40.583Z,2.40
2022-09-12T23:07:07.368Z,2.30
2022-09-12T23:09:35.581Z,2.03
2022-09-12T23:12:02.670Z,1.70
2022-09-12T23:14:29.276Z,2.20
2022-09-12T23:16:55.898Z,1.83
2022-09-12T23:19:22.472Z,1.90
2022-09-12T23:21:49.085Z,2.00
2022-09-12T23:24:15.667Z,2.07
2022-09-12T23:26:42.813Z,1.97
2022-09-12T23:29:09.389Z,2.27
2022-09-12T23:31:36.188Z,2.07
2022-09-12T23:34:03.879Z,1.70
2022-09-12T23:36:30.518Z,1.87
2022-09-12T23:38:57.439Z,1.67
2022-09-12T23:41:24.785Z,2.33
2022-09-12T23:43:51.586Z,2.10
2022-09-12T23:46:18.385Z,1.90
2022-09-12T23:48:45.115Z,1.80
2022-09-12T23:51:11.871Z,1.50
2022-09-12T23:53:38.582Z,1.80
2022-09-12T23:56:05.429Z,2.10
2022-09-12T23:58:32.037Z,1.83
